Time;durP1;ratioP1;P1;durP2;ratioP2;P2;SDS_P1;SDS_P2;PMS_P1;PMS_P2;Temp;Humidity;BMP_temperature;BMP_pressure;BME280_temperature;BME280_humidity;BME280_pressure;Samples;Min_cycle;Max_cycle;Signal;HPM_P1;HPM_P2
2022/05/08 00:00:13;;;;;;;19.70;17.08;;;;;;;-147.11;100.00;58674.28;685015;28;1136;-46
2022/05/08 00:00:36;;;;;;;20.17;17.90;;;;;;;-147.11;100.00;58674.28;686192;28;1020;-45
2022/05/08 00:00:57;;;;;;;20.63;18.00;;;;;;;-147.11;100.00;58674.28;686979;28;4459;-44
2022/05/08 00:01:17;;;;;;;20.50;18.30;;;;;;;-147.11;100.00;58674.28;687782;28;1020;-47
2022/05/08 00:01:38;;;;;;;19.80;17.80;;;;;;;-147.11;100.00;58674.28;690337;28;1283;-46
2022/05/08 00:01:59;;;;;;;18.77;16.63;;;;;;;-147.11;100.00;58674.28;688959;28;1024;-45
2022/05/08 00:02:20;;;;;;;20.10;17.17;;;;;;;-147.11;100.00;58674.28;690831;28;1149;-45
2022/05/08 00:02:41;;;;;;;20.17;17.98;;;;;;;-147.11;100.00;58674.28;689461;28;1130;-44
2022/05/08 00:03:04;;;;;;;20.58;18.38;;;;;;;-147.11;100.00;58674.28;689197;28;995;-44
2022/05/08 00:03:24;;;;;;;20.27;18.05;;;;;;;-147.11;100.00;58674.28;688744;28;1110;-45
2022/05/08 00:03:45;;;;;;;20.67;18.25;;;;;;;-147.11;100.00;58674.28;688550;28;1055;-45
2022/05/08 00:04:05;;;;;;;19.73;17.60;;;;;;;-147.11;100.00;58674.28;687041;28;4395;-45
2022/05/08 00:04:26;;;;;;;20.63;17.77;;;;;;;-147.11;100.00;58674.28;688090;28;1853;-45
2022/05/08 00:04:50;;;;;;;20.23;18.03;;;;;;;-147.11;100.00;58674.28;686666;28;1135;-46
2022/05/08 00:05:12;;;;;;;21.27;17.90;;;;;;;-147.11;100.00;58674.28;683537;28;1166;-46
2022/05/08 00:05:32;;;;;;;21.00;17.63;;;;;;;-147.11;100.00;58674.28;684510;28;1273;-45
2022/05/08 00:05:53;;;;;;;19.80;17.67;;;;;;;-147.11;100.00;58674.28;684654;28;1040;-45
2022/05/08 00:06:13;;;;;;;19.57;17.27;;;;;;;-147.11;100.00;58674.28;687639;28;1060;-44
2022/05/08 00:06:33;;;;;;;20.30;17.40;;;;;;;-147.11;100.00;58674.28;685661;28;1199;-44
2022/05/08 00:06:56;;;;;;;19.93;17.63;;;;;;;-147.11;100.00;58674.28;687377;28;1278;-44
2022/05/08 00:07:17;;;;;;;19.85;17.73;;;;;;;-147.11;100.00;58674.28;688430;28;4854;-46
2022/05/08 00:07:38;;;;;;;22.13;19.65;;;;;;;-147.11;100.00;58674.28;688480;28;1119;-46
2022/05/08 00:07:58;;;;;;;22.13;18.65;;;;;;;-147.11;100.00;58674.28;687004;28;1275;-45
2022/05/08 00:08:19;;;;;;;21.53;18.77;;;;;;;-147.11;100.00;58674.28;684832;28;2002;-44
2022/05/08 00:08:39;;;;;;;21.43;18.97;;;;;;;-147.11;100.00;58674.28;682897;28;1172;-45
2022/05/08 00:09:00;;;;;;;21.55;18.50;;;;;;;-147.11;100.00;58674.28;684095;28;996;-45
2022/05/08 00:09:21;;;;;;;23.10;20.00;;;;;;;-147.11;100.00;58674.28;683001;28;1190;-46
2022/05/08 00:09:41;;;;;;;24.23;20.38;;;;;;;-147.11;100.00;58674.28;684016;28;1154;-45
2022/05/08 00:10:02;;;;;;;24.57;20.03;;;;;;;-147.11;100.00;58674.28;687371;28;4513;-46
2022/05/08 00:10:22;;;;;;;22.88;18.80;;;;;;;-147.11;100.00;58674.28;688961;28;1064;-45
2022/05/08 00:10:42;;;;;;;22.53;19.37;;;;;;;-147.11;100.00;58674.28;688421;28;1056;-44
2022/05/08 00:11:04;;;;;;;22.97;19.10;;;;;;;-147.11;100.00;58674.28;689117;28;1091;-45
2022/05/08 00:11:24;;;;;;;22.73;19.20;;;;;;;-147.11;100.00;58674.28;690237;28;1123;-45
2022/05/08 00:11:44;;;;;;;24.40;20.45;;;;;;;-147.11;100.00;58674.28;687719;28;1172;-46
2022/05/08 00:12:05;;;;;;;22.70;20.07;;;;;;;-147.11;100.00;58674.28;688119;28;1015;-45
2022/05/08 00:12:26;;;;;;;22.52;19.73;;;;;;;-147.11;100.00;58674.28;687136;28;1088;-47
2022/05/08 00:12:46;;;;;;;23.42;20.15;;;;;;;-147.11;100.00;58674.28;686486;28;976;-44
2022/05/08 00:13:09;;;;;;;22.67;20.20;;;;;;;-147.11;100.00;58674.28;684758;28;4388;-45
2022/05/08 00:13:31;;;;;;;22.13;19.73;;;;;;;-147.11;100.00;58674.28;686294;28;1177;-45
2022/05/08 00:13:52;;;;;;;21.70;19.40;;;;;;;-147.11;100.00;58674.28;691245;28;1186;-45
2022/05/08 00:14:12;;;;;;;21.80;19.50;;;;;;;-147.11;100.00;58674.28;689540;28;1056;-45
2022/05/08 00:14:32;;;;;;;23.00;20.37;;;;;;;-147.11;100.00;58674.28;690390;28;1210;-45
2022/05/08 00:14:53;;;;;;;22.73;20.30;;;;;;;-147.11;100.00;58674.28;688451;28;1343;-46
2022/05/08 00:15:13;;;;;;;22.67;19.55;;;;;;;-147.11;100.00;58674.28;688642;28;1040;-45
2022/05/08 00:15:34;;;;;;;23.30;19.63;;;;;;;-147.11;100.00;58674.28;689898;28;2246;-45
2022/05/08 00:15:54;;;;;;;24.05;20.15;;;;;;;-147.11;100.00;58674.28;688885;28;1225;-44
2022/05/08 00:16:14;;;;;;;23.67;20.47;;;;;;;-147.11;100.00;58674.28;687622;28;4571;-44
2022/05/08 00:16:35;;;;;;;24.02;20.17;;;;;;;-147.11;100.00;58674.28;688836;28;3507;-44
2022/05/08 00:16:55;;;;;;;23.93;20.00;;;;;;;-147.11;100.00;58674.28;688265;28;1361;-44
2022/05/08 00:17:16;;;;;;;22.85;19.63;;;;;;;-147.11;100.00;58674.28;689321;28;1250;-43
2022/05/08 00:17:36;;;;;;;22.00;19.00;;;;;;;-147.11;100.00;58674.28;689036;28;1268;-44
2022/05/08 00:17:57;;;;;;;22.45;19.10;;;;;;;-147.11;100.00;58674.28;688946;28;1212;-46
2022/05/08 00:18:20;;;;;;;22.50;19.73;;;;;;;-147.11;100.00;58674.28;688400;28;1400;-45
2022/05/08 00:18:40;;;;;;;25.40;20.80;;;;;;;-147.11;100.00;58674.28;689709;28;828;-44
2022/05/08 00:19:00;;;;;;;24.88;20.75;;;;;;;-147.11;100.00;58674.28;690204;28;4392;-44
2022/05/08 00:19:21;;;;;;;25.43;21.23;;;;;;;-147.11;100.00;58674.28;690659;28;1075;-45
2022/05/08 00:19:43;;;;;;;25.13;21.53;;;;;;;-147.11;100.00;58674.28;689969;28;1083;-45
2022/05/08 00:20:06;;;;;;;24.27;21.67;;;;;;;-147.11;100.00;58674.28;689333;28;1021;-45
2022/05/08 00:20:27;;;;;;;24.50;21.55;;;;;;;-147.11;100.00;58674.28;690745;28;1131;-43
2022/05/08 00:20:47;;;;;;;24.50;21.25;;;;;;;-147.11;100.00;58674.28;689512;28;1246;-44
2022/05/08 00:21:08;;;;;;;25.27;21.37;;;;;;;-147.11;100.00;58674.28;690135;28;1111;-44
2022/05/08 00:21:28;;;;;;;24.97;21.83;;;;;;;-147.11;100.00;58674.28;690008;28;1222;-44
2022/05/08 00:21:49;;;;;;;26.45;21.52;;;;;;;-147.11;100.00;58674.28;691058;28;1040;-44
2022/05/08 00:22:11;;;;;;;25.55;21.60;;;;;;;-147.11;100.00;58674.28;690866;28;4487;-44
2022/05/08 00:22:32;;;;;;;24.77;21.10;;;;;;;-147.11;100.00;58674.28;689570;28;1215;-45
2022/05/08 00:22:53;;;;;;;25.00;21.63;;;;;;;-147.11;100.00;58674.28;689371;28;1297;-45
2022/05/08 00:23:13;;;;;;;26.98;22.65;;;;;;;-147.11;100.00;58674.28;689220;28;1302;-44
2022/05/08 00:23:34;;;;;;;26.50;22.75;;;;;;;-147.11;100.00;58674.28;688031;28;1234;-44
2022/05/08 00:23:55;;;;;;;26.13;22.23;;;;;;;-147.11;100.00;58674.28;689649;28;1369;-46
2022/05/08 00:24:15;;;;;;;26.10;22.50;;;;;;;-147.11;100.00;58674.28;690590;28;1341;-44
2022/05/08 00:24:35;;;;;;;26.40;22.43;;;;;;;-147.11;100.00;58674.28;689768;28;1377;-45
2022/05/08 00:24:56;;;;;;;25.75;22.52;;;;;;;-147.11;100.00;58674.28;689843;28;1297;-44
2022/05/08 00:25:16;;;;;;;25.70;22.90;;;;;;;-147.11;100.00;58674.28;689503;28;4292;-44
2022/05/08 00:25:37;;;;;;;26.23;22.95;;;;;;;-147.11;100.00;58674.28;686170;28;1213;-43
2022/05/08 00:25:57;;;;;;;27.03;22.53;;;;;;;-147.11;100.00;58674.28;689315;28;1099;-43
2022/05/08 00:26:18;;;;;;;27.60;23.25;;;;;;;-147.11;100.00;58674.28;687893;28;1123;-44
2022/05/08 00:26:39;;;;;;;26.13;22.45;;;;;;;-147.11;100.00;58674.28;689761;28;1119;-44
2022/05/08 00:26:59;;;;;;;25.83;21.90;;;;;;;-147.11;100.00;58674.28;688242;28;1133;-44
2022/05/08 00:27:20;;;;;;;26.70;22.38;;;;;;;-147.11;100.00;58674.28;688616;28;1187;-46
2022/05/08 00:27:40;;;;;;;27.00;23.42;;;;;;;-147.11;100.00;58674.28;688259;28;1421;-44
2022/05/08 00:28:01;;;;;;;26.77;23.73;;;;;;;-147.11;100.00;58674.28;685113;28;4459;-44
2022/05/08 00:28:21;;;;;;;27.17;24.08;;;;;;;-147.11;100.00;58674.28;685465;28;1991;-45
2022/05/08 00:28:41;;;;;;;27.47;24.47;;;;;;;-147.11;100.00;58674.28;685427;28;1148;-44
2022/05/08 00:29:02;;;;;;;28.20;23.77;;;;;;;-147.11;100.00;58674.28;685538;28;1060;-44
2022/05/08 00:29:23;;;;;;;29.77;23.35;;;;;;;-147.11;100.00;58674.28;684682;28;1104;-45
2022/05/08 00:29:43;;;;;;;28.50;24.20;;;;;;;-147.11;100.00;58674.28;686873;28;1091;-45
2022/05/08 00:30:04;;;;;;;29.23;25.33;;;;;;;-147.11;100.00;58674.28;688307;28;1110;-44
2022/05/08 00:30:25;;;;;;;28.83;24.98;;;;;;;-147.11;100.00;58674.28;686720;28;2364;-45
2022/05/08 00:30:45;;;;;;;28.83;24.93;;;;;;;-147.11;100.00;58674.28;688215;28;1044;-45
2022/05/08 00:31:10;;;;;;;29.60;25.87;;;;;;;-147.11;100.00;58674.28;688754;28;4546;-44
2022/05/08 00:31:30;;;;;;;28.60;25.25;;;;;;;-147.11;100.00;58674.28;688844;28;1278;-45
2022/05/08 00:31:51;;;;;;;27.53;24.43;;;;;;;-147.11;100.00;58674.28;688509;28;1253;-45
2022/05/08 00:32:11;;;;;;;27.30;24.40;;;;;;;-147.11;100.00;58674.28;689791;28;1217;-46
2022/05/08 00:32:32;;;;;;;29.02;24.65;;;;;;;-147.11;100.00;58674.28;688952;28;1237;-46
2022/05/08 00:32:53;;;;;;;29.38;25.00;;;;;;;-147.11;100.00;58674.28;688322;28;1580;-45
2022/05/08 00:33:13;;;;;;;28.57;24.60;;;;;;;-147.11;100.00;58674.28;685442;28;1143;-45
2022/05/08 00:33:34;;;;;;;30.23;25.08;;;;;;;-147.11;100.00;58674.28;687121;28;1874;-45
2022/05/08 00:33:55;;;;;;;28.37;25.00;;;;;;;-147.11;100.00;58674.28;687578;28;1099;-44
2022/05/08 00:34:15;;;;;;;29.75;24.77;;;;;;;-147.11;100.00;58674.28;684407;28;4525;-45
2022/05/08 00:34:36;;;;;;;26.70;23.67;;;;;;;-147.11;100.00;58674.28;688010;28;1417;-46
2022/05/08 00:34:57;;;;;;;27.83;24.17;;;;;;;-147.11;100.00;58674.28;690332;28;1116;-44
2022/05/08 00:35:17;;;;;;;28.30;25.00;;;;;;;-147.11;100.00;58674.28;690467;28;1075;-46
2022/05/08 00:35:38;;;;;;;27.23;24.33;;;;;;;-147.11;100.00;58674.28;689991;28;1056;-45
2022/05/08 00:35:58;;;;;;;27.23;24.30;;;;;;;-147.11;100.00;58674.28;689601;28;1123;-45
2022/05/08 00:36:19;;;;;;;25.73;22.97;;;;;;;-147.11;100.00;58674.28;689827;28;1118;-45
2022/05/08 00:36:39;;;;;;;27.10;23.40;;;;;;;-147.11;100.00;58674.28;690059;28;1123;-44
2022/05/08 00:37:00;;;;;;;26.93;24.03;;;;;;;-147.11;100.00;58674.28;689026;28;4373;-44
2022/05/08 00:37:21;;;;;;;28.02;24.88;;;;;;;-147.11;100.00;58674.28;688822;28;1158;-45
2022/05/08 00:37:41;;;;;;;28.27;24.67;;;;;;;-147.11;100.00;58674.28;690141;28;1107;-46
2022/05/08 00:38:02;;;;;;;27.77;24.52;;;;;;;-147.11;100.00;58674.28;689417;28;1060;-45
2022/05/08 00:38:22;;;;;;;26.97;24.03;;;;;;;-147.11;100.00;58674.28;689150;28;1127;-46
2022/05/08 00:38:43;;;;;;;26.92;23.73;;;;;;;-147.11;100.00;58674.28;688823;28;1111;-44
2022/05/08 00:39:03;;;;;;;27.23;24.20;;;;;;;-147.11;100.00;58674.28;689785;28;4674;-45
2022/05/08 00:39:24;;;;;;;28.42;25.00;;;;;;;-147.11;100.00;58674.28;687556;28;1234;-45
2022/05/08 00:39:44;;;;;;;29.83;25.97;;;;;;;-147.11;100.00;58674.28;687299;28;1097;-44
2022/05/08 00:40:07;;;;;;;29.95;25.73;;;;;;;-147.11;100.00;58674.28;686740;28;4318;-44
2022/05/08 00:40:29;;;;;;;30.48;25.70;;;;;;;-147.11;100.00;58674.28;687548;28;1143;-45
2022/05/08 00:40:49;;;;;;;29.50;24.77;;;;;;;-147.11;100.00;58674.28;688394;28;1722;-44
2022/05/08 00:41:10;;;;;;;28.00;24.95;;;;;;;-147.11;100.00;58674.28;689081;28;1238;-45
2022/05/08 00:41:30;;;;;;;27.97;24.87;;;;;;;-147.11;100.00;58674.28;690471;28;1158;-44
2022/05/08 00:41:51;;;;;;;27.23;24.23;;;;;;;-147.11;100.00;58674.28;687780;28;1061;-45
2022/05/08 00:42:12;;;;;;;27.92;24.90;;;;;;;-147.11;100.00;58674.28;687036;28;1313;-44
2022/05/08 00:42:33;;;;;;;27.08;24.17;;;;;;;-147.11;100.00;58674.28;687663;28;1116;-45
2022/05/08 00:42:53;;;;;;;28.00;25.00;;;;;;;-147.11;100.00;58674.28;691679;28;1104;-47
2022/05/08 00:43:38;;;;;;;27.42;24.00;;;;;;;-147.11;100.00;58674.28;688577;28;4496;-47
2022/05/08 00:43:58;;;;;;;28.88;24.85;;;;;;;-147.11;100.00;58674.28;692462;28;1411;-46
2022/05/08 00:44:18;;;;;;;30.13;25.43;;;;;;;-147.11;100.00;58674.28;690764;28;1141;-47
2022/05/08 00:44:39;;;;;;;28.67;25.17;;;;;;;-147.11;100.00;58674.28;687524;28;1135;-46
2022/05/08 00:44:59;;;;;;;28.17;24.43;;;;;;;-147.11;100.00;58674.28;689754;28;1331;-46
2022/05/08 00:45:20;;;;;;;28.50;24.67;;;;;;;-147.11;100.00;58674.28;689421;28;1119;-45
2022/05/08 00:45:40;;;;;;;29.20;25.83;;;;;;;-147.11;100.00;58674.28;690813;28;1059;-45
2022/05/08 00:46:06;;;;;;;28.83;25.45;;;;;;;-147.11;100.00;58674.28;690083;28;4738;-44
2022/05/08 00:46:29;;;;;;;28.88;25.23;;;;;;;-147.11;100.00;58674.28;689533;28;1218;-45
2022/05/08 00:46:49;;;;;;;30.02;25.40;;;;;;;-147.11;100.00;58674.28;689665;28;1095;-45
2022/05/08 00:47:10;;;;;;;28.00;25.00;;;;;;;-147.11;100.00;58674.28;690556;28;1214;-45
2022/05/08 00:47:30;;;;;;;28.40;25.23;;;;;;;-147.11;100.00;58674.28;689579;28;1249;-45
2022/05/08 00:47:51;;;;;;;27.88;24.88;;;;;;;-147.11;100.00;58674.28;690372;28;1684;-45
2022/05/08 00:48:11;;;;;;;27.60;24.60;;;;;;;-147.11;100.00;58674.28;689965;28;1238;-46
2022/05/08 00:48:33;;;;;;;28.42;24.40;;;;;;;-147.11;100.00;58674.28;690347;28;1921;-46
2022/05/08 00:48:53;;;;;;;27.52;24.55;;;;;;;-147.11;100.00;58674.28;690367;28;1328;-44
2022/05/08 00:49:13;;;;;;;29.85;24.15;;;;;;;-147.11;100.00;58674.28;687338;28;4255;-45
2022/05/08 00:49:34;;;;;;;30.20;24.10;;;;;;;-147.11;100.00;58674.28;688015;28;1242;-45
2022/05/08 00:49:57;;;;;;;28.23;23.40;;;;;;;-147.11;100.00;58674.28;685914;28;1283;-46
2022/05/08 00:50:18;;;;;;;27.90;23.77;;;;;;;-147.11;100.00;58674.28;687294;28;1235;-46
2022/05/08 00:50:38;;;;;;;29.08;24.42;;;;;;;-147.11;100.00;58674.28;686373;28;1207;-46
2022/05/08 00:51:01;;;;;;;28.30;23.93;;;;;;;-147.11;100.00;58674.28;686086;28;1124;-46
2022/05/08 00:51:22;;;;;;;28.02;24.27;;;;;;;-147.11;100.00;58674.28;686564;28;1223;-44
2022/05/08 00:51:47;;;;;;;27.60;23.92;;;;;;;-147.11;100.00;58674.28;688175;28;1183;-45
2022/05/08 00:52:07;;;;;;;29.42;24.42;;;;;;;-147.11;100.00;58674.28;686129;28;5079;-47
2022/05/08 00:52:29;;;;;;;29.08;24.77;;;;;;;-147.11;100.00;58674.28;688662;28;1222;-47
2022/05/08 00:52:53;;;;;;;26.55;23.70;;;;;;;-147.11;100.00;58674.28;689058;28;1411;-45
2022/05/08 00:53:14;;;;;;;27.75;24.67;;;;;;;-147.11;100.00;58674.28;690805;28;1229;-46
2022/05/08 00:53:38;;;;;;;28.43;24.97;;;;;;;-147.11;100.00;58674.28;690369;28;1357;-46
2022/05/08 00:54:02;;;;;;;27.63;23.80;;;;;;;-147.11;100.00;58674.28;687443;28;1072;-45
2022/05/08 00:54:23;;;;;;;28.40;24.10;;;;;;;-147.11;100.00;58674.28;688196;28;1227;-45
2022/05/08 00:54:45;;;;;;;27.65;24.20;;;;;;;-147.11;100.00;58674.28;688069;28;1218;-46
2022/05/08 00:55:06;;;;;;;27.48;24.02;;;;;;;-147.11;100.00;58674.28;688236;28;4653;-47
2022/05/08 00:55:28;;;;;;;27.27;24.05;;;;;;;-147.11;100.00;58674.28;690981;28;1088;-47
2022/05/08 00:55:48;;;;;;;28.83;24.50;;;;;;;-147.11;100.00;58674.28;689663;28;1321;-46
2022/05/08 00:56:11;;;;;;;28.08;24.98;;;;;;;-147.11;100.00;58674.28;689641;28;1188;-45
2022/05/08 00:56:32;;;;;;;28.55;25.30;;;;;;;-147.11;100.00;58674.28;689166;28;1369;-45
2022/05/08 00:56:54;;;;;;;29.70;25.02;;;;;;;-147.11;100.00;58674.28;689134;28;1068;-45
2022/05/08 00:57:14;;;;;;;27.63;24.40;;;;;;;-147.11;100.00;58674.28;689463;28;1222;-46
2022/05/08 00:57:36;;;;;;;27.80;24.80;;;;;;;-147.11;100.00;58674.28;689668;28;1183;-46
2022/05/08 00:58:00;;;;;;;27.35;24.42;;;;;;;-147.11;100.00;58674.28;688546;28;4911;-46
2022/05/08 00:58:20;;;;;;;27.13;23.85;;;;;;;-147.11;100.00;58674.28;689462;28;1250;-47
2022/05/08 00:58:42;;;;;;;26.38;22.52;;;;;;;-147.11;100.00;58674.28;688508;28;1096;-46
2022/05/08 00:59:03;;;;;;;27.75;22.98;;;;;;;-147.11;100.00;58674.28;689081;28;1207;-46
2022/05/08 00:59:26;;;;;;;27.73;23.47;;;;;;;-147.11;100.00;58674.28;689861;28;1246;-45
2022/05/08 00:59:47;;;;;;;26.55;23.73;;;;;;;-147.11;100.00;58674.28;689618;28;1191;-46
2022/05/08 01:00:08;;;;;;;27.63;24.73;;;;;;;-147.11;100.00;58674.28;690348;28;1214;-44
2022/05/08 01:00:31;;;;;;;27.60;24.20;;;;;;;-147.11;100.00;58674.28;690632;28;1230;-44
2022/05/08 01:00:51;;;;;;;27.33;23.57;;;;;;;-147.11;100.00;58674.28;690635;28;1250;-44
2022/05/08 01:01:13;;;;;;;26.58;23.45;;;;;;;-147.11;100.00;58674.28;689665;28;4419;-46
2022/05/08 01:01:33;;;;;;;26.67;22.80;;;;;;;-147.11;100.00;58674.28;690991;28;1364;-45
2022/05/08 01:01:53;;;;;;;25.50;22.57;;;;;;;-147.11;100.00;58674.28;688936;28;1365;-47
2022/05/08 01:02:14;;;;;;;25.90;23.13;;;;;;;-147.11;100.00;58674.28;689862;28;1250;-46
2022/05/08 01:02:35;;;;;;;26.75;23.38;;;;;;;-147.11;100.00;58674.28;688395;28;1366;-46
2022/05/08 01:02:57;;;;;;;25.97;22.47;;;;;;;-147.11;100.00;58674.28;689990;28;1392;-46
2022/05/08 01:03:17;;;;;;;26.80;22.63;;;;;;;-147.11;100.00;58674.28;689729;28;1198;-46
2022/05/08 01:03:39;;;;;;;28.97;23.90;;;;;;;-147.11;100.00;58674.28;690115;28;1159;-46
2022/05/08 01:03:59;;;;;;;30.38;24.90;;;;;;;-147.11;100.00;58674.28;688983;28;4380;-45
2022/05/08 01:04:19;;;;;;;28.07;23.77;;;;;;;-147.11;100.00;58674.28;689119;28;1317;-44
2022/05/08 01:04:40;;;;;;;26.73;23.33;;;;;;;-147.11;100.00;58674.28;687268;28;1371;-44
2022/05/08 01:05:00;;;;;;;27.10;22.90;;;;;;;-147.11;100.00;58674.28;691037;28;1561;-44
2022/05/08 01:05:21;;;;;;;27.38;23.33;;;;;;;-147.11;100.00;58674.28;689816;28;1411;-43
2022/05/08 01:05:43;;;;;;;27.98;23.23;;;;;;;-147.11;100.00;58674.28;687327;28;1541;-43
2022/05/08 01:06:08;;;;;;;26.45;22.75;;;;;;;-147.11;100.00;58674.28;686443;28;1206;-47
2022/05/08 01:06:31;;;;;;;26.85;22.98;;;;;;;-147.11;100.00;58674.28;684832;28;1429;-44
2022/05/08 01:06:51;;;;;;;28.10;24.50;;;;;;;-147.11;100.00;58674.28;687862;28;1258;-44
2022/05/08 01:07:12;;;;;;;27.35;24.27;;;;;;;-147.11;100.00;58674.28;687185;28;4372;-45
2022/05/08 01:07:33;;;;;;;28.80;23.97;;;;;;;-147.11;100.00;58674.28;688481;28;1333;-44
2022/05/08 01:07:53;;;;;;;29.52;24.55;;;;;;;-147.11;100.00;58674.28;690229;28;1476;-44
2022/05/08 01:08:14;;;;;;;28.25;24.27;;;;;;;-147.11;100.00;58674.28;689831;28;1266;-44
2022/05/08 01:08:37;;;;;;;27.47;24.00;;;;;;;-147.11;100.00;58674.28;689282;28;1938;-45
2022/05/08 01:08:58;;;;;;;27.80;23.35;;;;;;;-147.11;100.00;58674.28;686771;28;1559;-46
2022/05/08 01:09:18;;;;;;;27.23;23.27;;;;;;;-147.11;100.00;58674.28;688893;28;1348;-45
2022/05/08 01:09:40;;;;;;;27.33;23.90;;;;;;;-147.11;100.00;58674.28;688351;28;1262;-45
2022/05/08 01:10:03;;;;;;;27.02;23.35;;;;;;;-147.11;100.00;58674.28;687474;28;4741;-45
2022/05/08 01:10:24;;;;;;;28.38;23.52;;;;;;;-147.11;100.00;58674.28;688927;28;1254;-45
2022/05/08 01:10:45;;;;;;;30.35;25.13;;;;;;;-147.11;100.00;58674.28;687916;28;1409;-45
2022/05/08 01:11:07;;;;;;;28.47;24.60;;;;;;;-147.11;100.00;58674.28;690364;28;1234;-45
2022/05/08 01:11:27;;;;;;;28.35;24.10;;;;;;;-147.11;100.00;58674.28;688101;28;1096;-44
2022/05/08 01:11:48;;;;;;;27.10;22.43;;;;;;;-147.11;100.00;58674.28;687560;28;1374;-46
2022/05/08 01:12:09;;;;;;;25.75;22.23;;;;;;;-147.11;100.00;58674.28;688221;28;1254;-44
2022/05/08 01:12:32;;;;;;;26.58;22.88;;;;;;;-147.11;100.00;58674.28;687516;28;1241;-45
2022/05/08 01:12:53;;;;;;;26.23;23.20;;;;;;;-147.11;100.00;58674.28;688423;28;1501;-46
2022/05/08 01:13:14;;;;;;;26.60;23.48;;;;;;;-147.11;100.00;58674.28;688029;28;4452;-46
2022/05/08 01:13:36;;;;;;;27.90;23.53;;;;;;;-147.11;100.00;58674.28;690870;28;1278;-45
2022/05/08 01:13:56;;;;;;;29.80;24.02;;;;;;;-147.11;100.00;58674.28;691033;28;1490;-45
2022/05/08 01:14:17;;;;;;;27.83;23.80;;;;;;;-147.11;100.00;58674.28;690473;28;1107;-44
2022/05/08 01:14:37;;;;;;;28.93;23.70;;;;;;;-147.11;100.00;58674.28;689614;28;1599;-44
2022/05/08 01:15:16;;;;;;;29.50;23.93;;;;;;;-147.11;100.00;58674.28;691158;28;932;-44
2022/05/08 01:15:44;;;;;;;26.48;23.25;;;;;;;-147.11;100.00;58674.28;692441;28;1377;-47
2022/05/08 01:16:16;;;;;;;27.10;23.08;;;;;;;-147.11;100.00;58674.28;688860;28;4324;-46
2022/05/08 01:16:37;;;;;;;27.33;23.00;;;;;;;-147.11;100.00;58674.28;686836;28;1363;-45
2022/05/08 01:16:58;;;;;;;27.02;23.23;;;;;;;-147.11;100.00;58674.28;688810;28;1246;-44
2022/05/08 01:17:18;;;;;;;28.03;23.73;;;;;;;-147.11;100.00;58674.28;688154;28;1368;-45
2022/05/08 01:17:39;;;;;;;28.33;24.08;;;;;;;-147.11;100.00;58674.28;686434;28;1167;-45
2022/05/08 01:17:59;;;;;;;28.17;25.07;;;;;;;-147.11;100.00;58674.28;686996;28;1159;-44
2022/05/08 01:18:19;;;;;;;29.27;24.80;;;;;;;-147.11;100.00;58674.28;687379;28;1242;-45
2022/05/08 01:18:41;;;;;;;28.17;24.27;;;;;;;-147.11;100.00;58674.28;687679;28;1341;-45
2022/05/08 01:19:01;;;;;;;27.75;24.15;;;;;;;-147.11;100.00;58674.28;687055;28;4741;-46
2022/05/08 01:19:22;;;;;;;29.10;25.07;;;;;;;-147.11;100.00;58674.28;688420;28;1286;-44
2022/05/08 01:19:44;;;;;;;28.48;24.52;;;;;;;-147.11;100.00;58674.28;687990;28;1270;-46
2022/05/08 01:20:05;;;;;;;28.00;24.65;;;;;;;-147.11;100.00;58674.28;689426;28;1235;-45
2022/05/08 01:20:26;;;;;;;28.90;25.05;;;;;;;-147.11;100.00;58674.28;689261;28;1234;-45
2022/05/08 01:20:49;;;;;;;30.73;24.73;;;;;;;-147.11;100.00;58674.28;689001;28;1293;-44
2022/05/08 01:21:13;;;;;;;30.13;24.55;;;;;;;-147.11;100.00;58674.28;689599;28;1344;-45
2022/05/08 01:21:38;;;;;;;28.60;23.52;;;;;;;-147.11;100.00;58674.28;690015;28;1389;-46
2022/05/08 01:21:58;;;;;;;28.65;23.60;;;;;;;-147.11;100.00;58674.28;688153;28;5444;-44
2022/05/08 01:22:18;;;;;;;27.08;22.83;;;;;;;-147.11;100.00;58674.28;691252;28;1257;-45
2022/05/08 01:22:39;;;;;;;27.97;24.20;;;;;;;-147.11;100.00;58674.28;688703;28;1345;-45
2022/05/08 01:23:02;;;;;;;28.13;25.00;;;;;;;-147.11;100.00;58674.28;687598;28;1187;-45
2022/05/08 01:23:22;;;;;;;26.73;23.83;;;;;;;-147.11;100.00;58674.28;685540;28;1140;-46
2022/05/08 01:23:44;;;;;;;26.48;23.30;;;;;;;-147.11;100.00;58674.28;684945;28;1155;-44
2022/05/08 01:24:06;;;;;;;28.23;24.10;;;;;;;-147.11;100.00;58674.28;686818;28;1042;-46
2022/05/08 01:24:26;;;;;;;28.00;24.60;;;;;;;-147.11;100.00;58674.28;687904;28;1123;-46
2022/05/08 01:24:47;;;;;;;28.87;23.97;;;;;;;-147.11;100.00;58674.28;689416;28;1112;-46
2022/05/08 01:25:07;;;;;;;28.10;23.20;;;;;;;-147.11;100.00;58674.28;686793;28;4365;-46
2022/05/08 01:25:28;;;;;;;28.17;24.40;;;;;;;-147.11;100.00;58674.28;689491;28;1341;-45
2022/05/08 01:25:56;;;;;;;27.70;24.23;;;;;;;-147.11;100.00;58674.28;689627;28;1582;-47
2022/05/08 01:26:21;;;;;;;27.08;23.60;;;;;;;-147.11;100.00;58674.28;690121;28;1345;-45
2022/05/08 01:26:41;;;;;;;28.20;23.77;;;;;;;-147.11;100.00;58674.28;688919;28;1187;-45
2022/05/08 01:27:02;;;;;;;27.93;23.23;;;;;;;-147.11;100.00;58674.28;691146;28;1273;-45
2022/05/08 01:27:22;;;;;;;29.42;23.75;;;;;;;-147.11;100.00;58674.28;690949;28;1162;-44
2022/05/08 01:27:42;;;;;;;27.70;23.53;;;;;;;-147.11;100.00;58674.28;691148;28;1292;-45
2022/05/08 01:28:03;;;;;;;26.58;23.08;;;;;;;-147.11;100.00;58674.28;691175;28;4370;-44
2022/05/08 01:28:25;;;;;;;26.90;22.77;;;;;;;-147.11;100.00;58674.28;689299;28;1914;-44
2022/05/08 01:28:45;;;;;;;26.42;22.88;;;;;;;-147.11;100.00;58674.28;689177;28;1140;-45
2022/05/08 01:29:06;;;;;;;28.13;23.23;;;;;;;-147.11;100.00;58674.28;689170;28;1220;-45
2022/05/08 01:29:27;;;;;;;27.58;23.67;;;;;;;-147.11;100.00;58674.28;690470;28;1687;-45
2022/05/08 01:29:47;;;;;;;26.33;22.97;;;;;;;-147.11;100.00;58674.28;689821;28;1223;-47
2022/05/08 01:30:08;;;;;;;26.63;22.90;;;;;;;-147.11;100.00;58674.28;691002;28;1123;-45
2022/05/08 01:30:28;;;;;;;27.50;22.70;;;;;;;-147.11;100.00;58674.28;690181;28;1092;-44
2022/05/08 01:30:51;;;;;;;28.83;22.67;;;;;;;-147.11;100.00;58674.28;689135;28;1191;-45
2022/05/08 01:31:11;;;;;;;26.80;22.38;;;;;;;-147.11;100.00;58674.28;689138;28;5382;-45
2022/05/08 01:31:32;;;;;;;26.77;22.33;;;;;;;-147.11;100.00;58674.28;687709;28;1226;-44
2022/05/08 01:31:52;;;;;;;26.30;22.57;;;;;;;-147.11;100.00;58674.28;689322;28;1120;-45
2022/05/08 01:32:12;;;;;;;27.73;23.25;;;;;;;-147.11;100.00;58674.28;689227;28;1199;-45
2022/05/08 01:32:33;;;;;;;27.03;23.30;;;;;;;-147.11;100.00;58674.28;687744;28;1103;-47
2022/05/08 01:32:53;;;;;;;25.90;22.70;;;;;;;-147.11;100.00;58674.28;690685;28;1436;-45
2022/05/08 01:33:14;;;;;;;25.57;22.80;;;;;;;-147.11;100.00;58674.28;690854;28;1234;-46
2022/05/08 01:33:35;;;;;;;28.00;23.67;;;;;;;-147.11;100.00;58674.28;689346;28;1227;-45
2022/05/08 01:33:55;;;;;;;28.20;24.17;;;;;;;-147.11;100.00;58674.28;689230;28;1389;-46
2022/05/08 01:34:16;;;;;;;27.77;24.00;;;;;;;-147.11;100.00;58674.28;689541;28;4270;-44
2022/05/08 01:34:36;;;;;;;27.10;22.67;;;;;;;-147.11;100.00;58674.28;689424;28;1154;-44
2022/05/08 01:34:56;;;;;;;26.60;22.57;;;;;;;-147.11;100.00;58674.28;689547;28;1325;-45
2022/05/08 01:35:17;;;;;;;28.27;23.85;;;;;;;-147.11;100.00;58674.28;691013;28;1602;-44
2022/05/08 01:35:38;;;;;;;28.93;23.80;;;;;;;-147.11;100.00;58674.28;690873;28;1095;-46
2022/05/08 01:36:01;;;;;;;27.25;23.27;;;;;;;-147.11;100.00;58674.28;690056;28;1165;-45
2022/05/08 01:36:21;;;;;;;25.83;22.30;;;;;;;-147.11;100.00;58674.28;690358;28;1464;-46
2022/05/08 01:36:43;;;;;;;26.90;22.15;;;;;;;-147.11;100.00;58674.28;688852;28;1158;-45